createdAt,value
2019-04-01T00:02:16.726Z,100435.76
2019-04-01T00:04:45.928Z,100443.80
2019-04-01T00:07:15.124Z,100444.70
2019-04-01T00:09:44.382Z,100444.20
2019-04-01T00:12:13.681Z,100439.77
2019-04-01T00:14:42.938Z,100447.20
2019-04-01T00:17:12.125Z,100443.80
2019-04-01T00:19:41.374Z,100442.72
2019-04-01T00:22:10.612Z,100439.42
2019-04-01T00:24:39.840Z,100448.92
2019-04-01T00:27:09.050Z,100449.17
2019-04-01T00:29:38.341Z,100462.77
2019-04-01T00:32:07.524Z,100453.77
2019-04-01T00:34:36.713Z,100455.15
2019-04-01T00:37:05.966Z,100467.22
2019-04-01T00:39:35.199Z,100465.48
2019-04-01T00:42:06.015Z,100468.70
2019-04-01T00:44:35.259Z,100465.95
2019-04-01T00:47:04.571Z,100466.32
2019-04-01T00:49:33.800Z,100465.33
2019-04-01T00:52:03.047Z,100475.32
2019-04-01T00:54:32.291Z,100476.68
2019-04-01T00:57:01.644Z,100473.72
2019-04-01T00:59:30.853Z,100477.67
2019-04-01T01:02:00.148Z,100485.72
2019-04-01T01:04:29.350Z,100487.53
2019-04-01T01:06:58.571Z,100491.41
2019-04-01T01:09:27.770Z,100495.84
2019-04-01T01:11:57.029Z,100495.12
2019-04-01T01:14:26.264Z,100498.58
2019-04-01T01:16:55.433Z,100502.06
2019-04-01T01:19:24.614Z,100505.28
2019-04-01T01:21:53.898Z,100507.52
2019-04-01T01:24:23.151Z,100513.95
2019-04-01T01:26:52.414Z,100511.47
2019-04-01T01:29:21.770Z,100517.50
2019-04-01T01:31:51.036Z,100522.57
2019-04-01T01:34:20.220Z,100531.56
2019-04-01T01:36:49.443Z,100536.50
2019-04-01T01:39:18.688Z,100539.97
2019-04-01T01:41:47.919Z,100538.62
2019-04-01T01:44:17.136Z,100539.70
2019-04-01T01:46:46.410Z,100536.63
2019-04-01T01:49:15.569Z,100534.78
2019-04-01T01:51:44.778Z,100540.56
2019-04-01T01:54:14.081Z,100538.48
2019-04-01T01:56:43.294Z,100538.12
2019-04-01T01:59:12.567Z,100540.47
2019-04-01T02:01:41.810Z,100546.98
2019-04-01T02:04:11.010Z,100541.94
2019-04-01T02:06:40.299Z,100550.56
2019-04-01T02:09:09.503Z,100554.63
2019-04-01T02:11:38.791Z,100566.59
2019-04-01T02:14:08.025Z,100561.80
2019-04-01T02:16:37.279Z,100561.53
2019-04-01T02:19:06.521Z,100564.48
2019-04-01T02:21:35.733Z,100570.16
2019-04-01T02:24:05.039Z,100572.75
2019-04-01T02:26:34.235Z,100572.12
2019-04-01T02:29:03.490Z,100577.18
2019-04-01T02:31:32.795Z,100579.52
2019-04-01T02:34:02.060Z,100576.31
2019-04-01T02:36:31.259Z,100583.72
2019-04-01T02:39:00.520Z,100582.23
2019-04-01T02:41:29.706Z,100584.67
2019-04-01T02:43:58.907Z,100590.36
2019-04-01T02:46:28.339Z,100589.23
2019-04-01T02:48:57.628Z,100598.36
2019-04-01T02:51:27.384Z,100595.88
2019-04-01T02:53:56.611Z,100603.14
2019-04-01T02:56:27.017Z,100604.50
2019-04-01T02:58:56.205Z,100603.41
2019-04-01T03:01:25.515Z,100605.86
2019-04-01T03:03:54.698Z,100611.67
2019-04-01T03:06:23.917Z,100613.89
2019-04-01T03:08:53.141Z,100615.12
2019-04-01T03:11:22.399Z,100617.55
2019-04-01T03:13:51.605Z,100620.66
2019-04-01T03:16:20.880Z,100623.37
2019-04-01T03:18:50.323Z,100622.61
2019-04-01T03:21:19.639Z,100627.51
2019-04-01T03:23:48.821Z,100630.48
2019-04-01T03:26:18.050Z,100630.25
2019-04-01T03:28:47.295Z,100632.59
2019-04-01T03:31:16.475Z,100632.22
2019-04-01T03:33:45.783Z,100642.94
2019-04-01T03:36:15.009Z,100654.50
2019-04-01T03:38:44.218Z,100649.70
2019-04-01T03:41:13.560Z,100653.77
2019-04-01T03:43:42.815Z,100659.06
2019-04-01T03:46:12.041Z,100662.78
2019-04-01T03:48:41.425Z,100666.62
2019-04-01T03:51:10.623Z,100665.39
2019-04-01T03:53:39.882Z,100671.77
2019-04-01T03:56:09.088Z,100678.17
2019-04-01T03:58:38.321Z,100671.89
2019-04-01T04:01:07.569Z,100678.55
2019-04-01T04:03:36.764Z,100683.70
2019-04-01T04:06:06.067Z,100690.84
2019-04-01T04:08:35.311Z,100688.02
2019-04-01T04:11:04.755Z,100691.84
2019-04-01T04:13:34.076Z,100696.44
2019-04-01T04:16:03.673Z,100697.77
2019-04-01T04:18:32.898Z,100701.54
2019-04-01T04:21:02.057Z,100702.53
2019-04-01T04:23:31.297Z,100708.09
2019-04-01T04:26:00.641Z,100708.25
2019-04-01T04:28:29.828Z,100705.65
2019-04-01T04:30:59.112Z,100713.05
2019-04-01T04:33:28.307Z,100715.72
2019-04-01T04:35:57.506Z,100717.53
2019-04-01T04:38:26.739Z,100723.69
2019-04-01T04:40:55.962Z,100734.17
2019-04-01T04:43:25.218Z,100732.22
2019-04-01T04:45:54.742Z,100740.03
2019-04-01T04:48:24.190Z,100738.33
2019-04-01T04:50:53.429Z,100747.41
2019-04-01T04:53:22.647Z,100751.66
2019-04-01T04:55:51.862Z,100759.70
2019-04-01T04:58:21.138Z,100760.14
2019-04-01T05:00:50.451Z,100760.39
2019-04-01T05:03:19.861Z,100763.37
2019-04-01T05:05:49.248Z,100766.34
2019-04-01T05:08:18.588Z,100772.39
2019-04-01T05:10:47.865Z,100773.96
2019-04-01T05:13:17.237Z,100774.50
2019-04-01T05:15:46.795Z,100772.73
2019-04-01T05:18:16.176Z,100770.48
2019-04-01T05:20:51.980Z,100771.83
2019-04-01T05:23:21.353Z,100778.48
2019-04-01T05:25:50.708Z,100776.09
2019-04-01T05:28:20.010Z,100779.13
2019-04-01T05:30:49.436Z,100781.52
2019-04-01T05:33:19.233Z,100782.41
2019-04-01T05:35:48.645Z,100791.84
2019-04-01T05:38:17.968Z,100792.62
2019-04-01T05:40:47.728Z,100799.73
2019-04-01T05:43:17.074Z,100806.98
2019-04-01T05:45:46.425Z,100802.44
2019-04-01T05:48:17.299Z,100802.66
2019-04-01T05:50:46.673Z,100806.59
2019-04-01T05:53:15.981Z,100799.30
2019-04-01T05:55:45.482Z,100815.89
2019-04-01T05:58:14.811Z,100814.28
2019-04-01T06:00:45.667Z,100810.18
2019-04-01T06:03:15.016Z,100822.00
2019-04-01T06:05:44.379Z,100819.63
2019-04-01T06:08:13.632Z,100822.77
2019-04-01T06:10:42.953Z,100821.77
2019-04-01T06:13:12.253Z,100824.00
2019-04-01T06:15:41.661Z,100820.79
2019-04-01T06:18:11.067Z,100827.22
2019-04-01T06:20:40.389Z,100813.63
2019-04-01T06:23:09.664Z,100821.38
2019-04-01T06:25:38.960Z,100813.73
2019-04-01T06:28:08.365Z,100818.77
2019-04-01T06:30:37.774Z,100822.47
2019-04-01T06:33:07.191Z,100828.46
2019-04-01T06:35:36.578Z,100831.42
2019-04-01T06:38:05.975Z,100833.17
2019-04-01T06:40:35.302Z,100833.84
2019-04-01T06:43:04.547Z,100833.83
2019-04-01T06:45:33.914Z,100839.68
2019-04-01T06:48:03.128Z,100846.56
2019-04-01T06:50:32.455Z,100849.37
2019-04-01T06:53:01.873Z,100853.69
2019-04-01T06:55:31.132Z,100857.66
2019-04-01T06:58:00.581Z,100861.80
2019-04-01T07:00:29.891Z,100863.01
2019-04-01T07:02:59.219Z,100870.19
2019-04-01T07:05:28.575Z,100875.50
2019-04-01T07:07:57.898Z,100874.81
2019-04-01T07:10:27.324Z,100881.65
2019-04-01T07:12:56.514Z,100880.20
2019-04-01T07:15:25.909Z,100885.77
2019-04-01T07:17:55.279Z,100881.28
2019-04-01T07:20:24.701Z,100890.11
2019-04-01T07:22:54.030Z,100893.16
2019-04-01T07:25:23.438Z,100897.41
2019-04-01T07:27:52.720Z,100898.72
2019-04-01T07:30:21.973Z,100904.13
2019-04-01T07:32:51.397Z,100900.77
2019-04-01T07:35:20.807Z,100901.87
2019-04-01T07:37:50.536Z,100908.00
2019-04-01T07:40:19.738Z,100905.16
2019-04-01T07:42:49.069Z,100908.02
2019-04-01T07:45:18.523Z,100914.45
2019-04-01T07:47:51.406Z,100919.48
2019-04-01T07:50:19.113Z,100928.39
2019-04-01T07:52:48.436Z,100922.05
2019-04-01T07:55:17.689Z,100928.81
2019-04-01T07:57:47.199Z,100935.66
2019-04-01T08:00:16.427Z,100932.09
2019-04-01T08:02:48.827Z,100936.09
2019-04-01T08:05:17.105Z,100942.52
2019-04-01T08:07:46.485Z,100937.56
2019-04-01T08:10:17.423Z,100943.98
2019-04-01T08:12:46.694Z,100948.21
2019-04-01T08:15:16.369Z,100945.80
2019-04-01T08:17:45.760Z,100943.64
2019-04-01T08:20:15.155Z,100948.42
2019-04-01T08:22:44.490Z,100945.60
2019-04-01T08:25:13.749Z,100951.66
2019-04-01T08:27:43.165Z,100952.06
2019-04-01T08:30:12.352Z,100948.53
2019-04-01T08:32:41.647Z,100955.78
2019-04-01T08:35:11.022Z,100956.92
2019-04-01T08:37:40.831Z,100961.91
2019-04-01T08:40:10.300Z,100959.20
2019-04-01T08:42:39.708Z,100958.07
2019-04-01T08:45:09.055Z,100967.33
2019-04-01T08:47:38.481Z,100951.12
2019-04-01T08:50:07.888Z,100959.27
2019-04-01T08:52:37.129Z,100950.92
2019-04-01T08:55:07.499Z,100953.42
2019-04-01T08:57:36.685Z,100950.15
2019-04-01T09:00:07.156Z,100951.28
2019-04-01T09:02:36.408Z,100950.65
2019-04-01T09:05:06.239Z,100951.90
2019-04-01T09:07:35.656Z,100943.07
2019-04-01T09:10:06.067Z,100947.50
2019-04-01T09:12:35.496Z,100949.20
2019-04-01T09:15:06.488Z,100950.11
2019-04-01T09:17:35.696Z,100950.73
2019-04-01T09:20:05.339Z,100946.45
2019-04-01T09:22:34.605Z,100947.22
2019-04-01T09:25:04.848Z,100937.81
2019-04-01T09:27:34.139Z,100939.70
2019-04-01T09:30:03.475Z,100944.32
2019-04-01T09:32:32.795Z,100943.30
2019-04-01T09:35:02.176Z,100935.39
2019-04-01T09:37:31.444Z,100946.55
2019-04-01T09:40:00.749Z,100937.02
2019-04-01T09:42:30.091Z,100949.77
2019-04-01T09:44:59.284Z,100947.46
2019-04-01T09:47:28.546Z,100944.88
2019-04-01T09:49:57.918Z,100945.93
2019-04-01T09:52:27.250Z,100940.52
2019-04-01T09:54:56.504Z,100945.48
2019-04-01T09:57:25.833Z,100941.48
2019-04-01T09:59:55.103Z,100940.56
2019-04-01T10:02:31.830Z,100941.70
2019-04-01T10:04:55.563Z,100945.90
2019-04-01T10:07:25.042Z,100952.50
2019-04-01T10:09:54.408Z,100942.37
2019-04-01T10:12:23.731Z,100953.38
2019-04-01T10:14:53.190Z,100950.83
2019-04-01T10:17:22.452Z,100941.83
2019-04-01T10:19:51.785Z,100944.55
2019-04-01T10:22:21.227Z,100952.43
2019-04-01T10:24:50.468Z,100954.20
2019-04-01T10:27:20.059Z,100949.48
2019-04-01T10:29:49.529Z,100960.19
2019-04-01T10:32:18.837Z,100963.48
2019-04-01T10:34:48.223Z,100958.11
2019-04-01T10:37:17.587Z,100965.72
2019-04-01T10:39:46.907Z,100955.31
2019-04-01T10:42:16.342Z,100948.64
2019-04-01T10:44:45.741Z,100955.33
2019-04-01T10:47:15.029Z,100955.11
2019-04-01T10:49:44.464Z,100942.18
2019-04-01T10:52:13.829Z,100938.21
2019-04-01T10:54:43.194Z,100936.55
2019-04-01T10:57:12.684Z,100936.05
2019-04-01T10:59:42.028Z,100946.36
2019-04-01T11:02:11.329Z,100947.20
2019-04-01T11:04:40.629Z,100931.45
2019-04-01T11:07:10.074Z,100961.36
2019-04-01T11:09:39.798Z,100963.89
2019-04-01T11:12:09.121Z,100957.58
2019-04-01T11:14:38.576Z,100950.01
2019-04-01T11:17:08.316Z,100952.09
2019-04-01T14:22:38.762Z,100834.01
2019-04-01T14:25:08.005Z,100840.33
2019-04-01T14:27:37.387Z,100844.45
2019-04-01T14:30:10.155Z,100839.56
2019-04-01T14:32:39.405Z,100824.23
2019-04-01T14:35:08.676Z,100833.71
2019-04-01T14:37:39.760Z,100830.67
2019-04-01T14:40:09.479Z,100826.91
2019-04-01T14:42:39.812Z,100823.73
2019-04-01T14:45:09.879Z,100822.30
2019-04-01T14:47:56.121Z,100826.90
2019-04-01T14:50:10.064Z,100822.09
2019-04-01T14:52:39.272Z,100818.02
2019-04-01T14:55:09.331Z,100829.27
2019-04-01T14:57:38.589Z,100824.77
2019-04-01T15:00:10.505Z,100828.10
2019-04-01T15:02:39.673Z,100826.72
2019-04-01T15:05:10.543Z,100817.81
2019-04-01T15:07:39.746Z,100820.02
2019-04-01T15:10:08.993Z,100809.64
2019-04-01T15:12:39.469Z,100812.05
2019-04-01T15:15:08.842Z,100817.96
2019-04-01T15:17:38.149Z,100822.53
2019-04-01T15:20:07.858Z,100816.81
2019-04-01T15:22:37.108Z,100815.58
2019-04-01T15:25:07.122Z,100818.92
2019-04-01T15:27:36.301Z,100814.35
2019-04-01T15:30:08.886Z,100819.86
2019-04-01T15:32:38.253Z,100819.62
2019-04-01T15:35:07.965Z,100814.56
2019-04-01T15:37:37.143Z,100821.17
2019-04-01T15:40:09.612Z,100823.06
2019-04-01T15:42:38.186Z,100818.09
2019-04-01T15:45:07.350Z,100804.44
2019-04-01T15:47:38.348Z,100814.97
2019-04-01T15:50:09.386Z,100824.97
2019-04-01T15:52:38.557Z,100820.94
2019-04-01T15:55:07.833Z,100816.85
2019-04-01T15:57:37.083Z,100813.14
2019-04-01T16:00:07.207Z,100813.18
2019-04-01T16:02:36.422Z,100815.12
2019-04-01T16:05:07.494Z,100811.16
2019-04-01T16:07:36.656Z,100821.39
2019-04-01T16:10:06.467Z,100817.86
2019-04-01T16:12:35.669Z,100820.28
2019-04-01T16:15:09.048Z,100807.23
2019-04-01T16:17:38.450Z,100807.93
2019-04-01T16:20:07.771Z,100807.55
2019-04-01T16:22:36.955Z,100814.66
2019-04-01T16:25:07.799Z,100810.18
2019-04-01T16:27:37.033Z,100815.73
2019-04-01T16:30:08.122Z,100810.16
2019-04-01T16:32:37.357Z,100808.05
2019-04-01T16:35:07.236Z,100807.97
2019-04-01T16:37:36.481Z,100814.02
2019-04-01T16:40:06.582Z,100808.19
2019-04-01T16:42:35.791Z,100808.20
2019-04-01T16:45:07.221Z,100807.09
2019-04-01T16:47:36.404Z,100807.58
2019-04-01T16:50:07.648Z,100810.52
2019-04-01T16:52:36.823Z,100813.27
2019-04-01T16:55:07.018Z,100813.92
2019-04-01T16:57:36.529Z,100809.42
2019-04-01T17:00:08.260Z,100814.50
2019-04-01T17:02:38.928Z,100824.51
2019-04-01T17:05:08.129Z,100822.04
2019-04-01T17:07:37.307Z,100820.17
2019-04-01T17:10:06.575Z,100828.84
2019-04-01T17:12:35.851Z,100821.53
2019-04-01T17:15:05.627Z,100827.95
2019-04-01T17:17:34.818Z,100823.75
2019-04-01T17:20:06.172Z,100825.09
2019-04-01T17:22:35.420Z,100823.58
2019-04-01T17:25:06.248Z,100835.16
2019-04-01T17:27:35.513Z,100823.99
2019-04-01T17:30:07.087Z,100828.70
2019-04-01T17:32:36.268Z,100826.55
2019-04-01T17:35:07.482Z,100833.25
2019-04-01T17:37:37.984Z,100840.67
2019-04-01T17:40:08.595Z,100832.47
2019-04-01T17:42:39.345Z,100838.43
2019-04-01T17:45:23.592Z,100848.92
2019-04-01T17:47:52.840Z,100846.61
2019-04-01T17:50:22.112Z,100851.06
2019-04-01T17:52:51.278Z,100849.55
2019-04-01T17:55:20.530Z,100851.43
2019-04-01T17:57:49.703Z,100858.19
2019-04-01T18:00:26.396Z,100861.73
2019-04-01T18:02:55.668Z,100856.19
2019-04-01T18:05:24.852Z,100862.42
2019-04-01T18:07:54.158Z,100860.23
2019-04-01T18:10:23.404Z,100861.45
2019-04-01T18:12:52.592Z,100858.92
2019-04-01T18:15:21.870Z,100863.96
2019-04-01T18:17:51.069Z,100863.16
2019-04-01T18:20:20.560Z,100866.30
2019-04-01T18:22:49.729Z,100865.20
2019-04-01T18:25:19.088Z,100867.57
2019-04-01T18:27:48.280Z,100872.88
2019-04-01T18:30:17.522Z,100872.33
2019-04-01T18:32:46.716Z,100878.09
2019-04-01T18:35:15.986Z,100874.70
2019-04-01T18:37:45.178Z,100874.63
2019-04-01T18:40:14.352Z,100878.77
2019-04-01T18:42:43.583Z,100881.28
2019-04-01T18:45:12.836Z,100881.81
2019-04-01T18:47:42.027Z,100880.63
2019-04-01T18:50:11.331Z,100881.78
2019-04-01T18:52:40.515Z,100886.14
2019-04-01T18:55:09.776Z,100889.00
2019-04-01T18:57:39.005Z,100891.42
2019-04-01T19:00:10.455Z,100887.97
2019-04-01T19:02:39.703Z,100897.87
2019-04-01T19:05:09.978Z,100891.58
2019-04-01T19:07:39.389Z,100899.78
2019-04-01T19:10:08.569Z,100904.75
2019-04-01T19:12:37.790Z,100901.92
2019-04-01T19:15:09.869Z,100909.47
2019-04-01T19:17:38.647Z,100905.77
2019-04-01T19:20:08.500Z,100911.51
2019-04-01T19:22:37.971Z,100900.38
2019-04-01T19:25:07.632Z,100904.95
2019-04-01T19:27:36.977Z,100908.91
2019-04-01T19:30:06.817Z,100911.49
2019-04-01T19:32:36.062Z,100915.20
2019-04-01T19:35:09.318Z,100912.33
2019-04-01T19:37:37.574Z,100911.76
2019-04-01T19:40:07.268Z,100910.69
2019-04-01T19:42:39.260Z,100914.23
2019-04-01T19:45:07.711Z,100911.14
2019-04-01T19:47:36.983Z,100911.02
2019-04-01T19:50:07.785Z,100913.53
2019-04-01T19:52:37.455Z,100921.92
2019-04-01T19:55:06.648Z,100922.06
2019-04-01T19:57:35.902Z,100921.05
2019-04-01T20:00:08.542Z,100921.31
2019-04-01T20:02:37.735Z,100921.05
2019-04-01T20:05:07.764Z,100926.11
2019-04-01T20:07:37.033Z,100930.39
2019-04-01T20:10:06.287Z,100923.80
2019-04-01T20:12:35.595Z,100936.93
2019-04-01T20:15:09.587Z,100938.40
2019-04-01T20:17:39.399Z,100937.38
2019-04-01T20:20:08.783Z,100934.80
2019-04-01T20:22:38.103Z,100938.00
2019-04-01T20:25:08.001Z,100936.24
2019-04-01T20:27:37.293Z,100940.66
2019-04-01T20:30:09.746Z,100940.23
2019-04-01T20:32:39.084Z,100943.94
2019-04-01T20:35:08.324Z,100942.19
2019-04-01T20:37:37.587Z,100944.78
2019-04-01T20:40:07.546Z,100939.95
2019-04-01T20:42:36.779Z,100944.42
2019-04-01T20:45:10.585Z,100937.05
2019-04-01T20:47:37.787Z,100947.14
2019-04-01T20:50:11.170Z,100952.23
2019-04-01T20:52:40.344Z,100947.11
2019-04-01T20:55:09.600Z,100953.15
2019-04-01T20:57:38.828Z,100952.63
2019-04-01T21:00:09.583Z,100955.69
2019-04-01T21:02:39.223Z,100958.19
2019-04-01T21:05:08.530Z,100957.91
2019-04-01T21:07:37.692Z,100965.77
2019-04-01T21:10:09.630Z,100961.36
2019-04-01T21:12:38.828Z,100948.75
2019-04-01T21:15:08.580Z,100958.53
2019-04-01T21:17:37.759Z,100959.22
2019-04-01T21:20:07.489Z,100958.88
2019-04-01T21:22:37.405Z,100957.30
2019-04-01T21:25:09.856Z,100958.63
2019-04-01T21:27:39.108Z,100965.94
2019-04-01T21:30:11.446Z,100962.98
2019-04-01T21:32:40.769Z,100959.16
2019-04-01T21:35:10.027Z,100954.97
2019-04-01T21:37:39.348Z,100956.34
2019-04-01T21:40:08.538Z,100966.16
2019-04-01T21:42:37.832Z,100963.35
2019-04-01T21:45:07.509Z,100962.28
2019-04-01T21:47:36.911Z,100962.43
2019-04-01T21:50:06.892Z,100951.14
2019-04-01T21:52:36.411Z,100957.70
2019-04-01T21:55:08.069Z,100956.80
2019-04-01T21:57:37.290Z,100959.46
2019-04-01T22:00:10.914Z,100959.67
2019-04-01T22:02:40.161Z,100944.81
2019-04-01T22:05:10.324Z,100953.44
2019-04-01T22:07:40.203Z,100960.62
2019-04-01T22:10:11.138Z,100954.84
2019-04-01T22:12:40.416Z,100954.66
2019-04-01T22:15:09.662Z,100950.62
2019-04-01T22:17:39.019Z,100955.49
2019-04-01T22:20:09.413Z,100959.10
2019-04-01T22:22:39.453Z,100952.22
2019-04-01T22:25:08.772Z,100953.98
2019-04-01T22:27:38.047Z,100946.52
2019-04-01T22:30:07.870Z,100953.18
2019-04-01T22:32:37.319Z,100953.73
2019-04-01T22:35:08.601Z,100951.45
2019-04-01T22:37:38.139Z,100953.24
2019-04-01T22:40:07.374Z,100945.34
2019-04-01T22:42:37.175Z,100944.30
2019-04-01T22:45:07.236Z,100947.50
2019-04-01T22:47:36.479Z,100945.46
2019-04-01T22:50:10.122Z,100939.33
2019-04-01T22:52:42.074Z,100940.81
2019-04-01T22:55:10.325Z,100937.70
2019-04-01T22:57:39.544Z,100937.29
2019-04-01T23:00:08.857Z,100935.03
2019-04-01T23:02:38.107Z,100936.39
2019-04-01T23:05:08.759Z,100935.16
2019-04-01T23:07:38.273Z,100930.64
2019-04-01T23:10:07.734Z,100931.20
2019-04-01T23:12:36.905Z,100934.09
2019-04-01T23:15:07.527Z,100936.03
2019-04-01T23:17:38.302Z,100936.80
2019-04-01T23:20:07.744Z,100935.00
2019-04-01T23:22:36.920Z,100936.35
2019-04-01T23:25:06.460Z,100933.80
2019-04-01T23:27:35.640Z,100929.45
2019-04-01T23:30:07.818Z,100935.41
2019-04-01T23:32:37.146Z,100934.33
2019-04-01T23:35:06.956Z,100930.75
2019-04-01T23:37:38.102Z,100930.20
2019-04-01T23:40:07.265Z,100928.18
2019-04-01T23:42:37.914Z,100929.61
2019-04-01T23:45:07.736Z,100930.23
2019-04-01T23:47:37.104Z,100933.10
2019-04-01T23:50:09.140Z,100928.87
2019-04-01T23:52:38.838Z,100928.43
2019-04-01T23:55:08.624Z,100929.70
2019-04-01T23:57:37.801Z,100926.98
